sensor_id;sensor_type;location;lat;lon;timestamp;pressure;altitude;pressure_sealevel;temperature;humidity
72465;BME280;60471;52.150;4.508;2023-05-02T00:01:42;101844.81;;;13.23;71.61
72465;BME280;60471;52.150;4.508;2023-05-02T00:04:08;101837.78;;;13.22;71.40
72465;BME280;60471;52.150;4.508;2023-05-02T00:06:34;101843.56;;;13.10;72.04
72465;BME280;60471;52.150;4.508;2023-05-02T00:09:00;101850.19;;;13.22;72.14
72465;BME280;60471;52.150;4.508;2023-05-02T00:11:26;101846.97;;;13.36;71.83
72465;BME280;60471;52.150;4.508;2023-05-02T00:13:53;101852.03;;;13.40;70.92
72465;BME280;60471;52.150;4.508;2023-05-02T00:16:19;101855.69;;;13.38;71.32
72465;BME280;60471;52.150;4.508;2023-05-02T00:18:45;101853.88;;;13.18;71.84
72465;BME280;60471;52.150;4.508;2023-05-02T00:21:11;101856.28;;;13.44;71.48
72465;BME280;60471;52.150;4.508;2023-05-02T00:23:38;101855.22;;;13.48;71.39
72465;BME280;60471;52.150;4.508;2023-05-02T00:26:08;101863.56;;;13.39;71.46
72465;BME280;60471;52.150;4.508;2023-05-02T00:28:35;101861.47;;;13.27;72.34
72465;BME280;60471;52.150;4.508;2023-05-02T00:31:02;101857.25;;;13.21;72.46
72465;BME280;60471;52.150;4.508;2023-05-02T00:33:29;101845.16;;;13.36;72.03
72465;BME280;60471;52.150;4.508;2023-05-02T00:35:55;101851.34;;;13.15;72.44
72465;BME280;60471;52.150;4.508;2023-05-02T00:38:21;101849.81;;;13.09;72.75
72465;BME280;60471;52.150;4.508;2023-05-02T00:40:49;101867.63;;;13.05;72.71
72465;BME280;60471;52.150;4.508;2023-05-02T00:43:18;101862.72;;;12.96;72.35
72465;BME280;60471;52.150;4.508;2023-05-02T00:45:45;101872.38;;;12.97;72.00
72465;BME280;60471;52.150;4.508;2023-05-02T00:48:12;101874.47;;;12.89;71.93
72465;BME280;60471;52.150;4.508;2023-05-02T00:50:40;101871.03;;;12.87;71.76
72465;BME280;60471;52.150;4.508;2023-05-02T00:53:08;101868.31;;;12.67;71.61
72465;BME280;60471;52.150;4.508;2023-05-02T00:55:36;101877.75;;;12.52;72.18
72465;BME280;60471;52.150;4.508;2023-05-02T00:58:14;101883.78;;;12.77;71.36
72465;BME280;60471;52.150;4.508;2023-05-02T01:12:40;101891.34;;;12.87;70.68
72465;BME280;60471;52.150;4.508;2023-05-02T01:15:11;101892.00;;;12.93;69.74
72465;BME280;60471;52.150;4.508;2023-05-02T01:17:43;101894.19;;;12.60;71.07
72465;BME280;60471;52.150;4.508;2023-05-02T01:20:14;101886.56;;;12.53;71.66
72465;BME280;60471;52.150;4.508;2023-05-02T01:22:45;101896.22;;;12.54;70.92
72465;BME280;60471;52.150;4.508;2023-05-02T01:25:22;101892.84;;;12.50;71.04
72465;BME280;60471;52.150;4.508;2023-05-02T01:28:29;101896.25;;;12.30;71.05
72465;BME280;60471;52.150;4.508;2023-05-02T01:31:04;101905.84;;;12.33;71.00
72465;BME280;60471;52.150;4.508;2023-05-02T01:33:33;101904.59;;;12.19;71.11
72465;BME280;60471;52.150;4.508;2023-05-02T01:36:01;101905.91;;;12.31;71.08
72465;BME280;60471;52.150;4.508;2023-05-02T01:38:28;101909.59;;;12.27;70.66
72465;BME280;60471;52.150;4.508;2023-05-02T01:40:58;101910.97;;;12.37;70.52
72465;BME280;60471;52.150;4.508;2023-05-02T01:43:31;101911.97;;;12.57;69.98
72465;BME280;60471;52.150;4.508;2023-05-02T01:46:00;101918.47;;;12.71;68.94
72465;BME280;60471;52.150;4.508;2023-05-02T01:48:29;101912.53;;;12.65;68.54
72465;BME280;60471;52.150;4.508;2023-05-02T01:50:57;101909.16;;;12.61;68.69
72465;BME280;60471;52.150;4.508;2023-05-02T01:53:25;101923.22;;;12.40;68.90
72465;BME280;60471;52.150;4.508;2023-05-02T01:55:55;101926.81;;;12.39;68.82
72465;BME280;60471;52.150;4.508;2023-05-02T01:58:26;101933.47;;;12.49;68.25
72465;BME280;60471;52.150;4.508;2023-05-02T02:00:57;101940.44;;;12.52;68.73
72465;BME280;60471;52.150;4.508;2023-05-02T02:03:28;101942.75;;;12.37;67.85
72465;BME280;60471;52.150;4.508;2023-05-02T02:05:57;101945.28;;;12.40;67.15
72465;BME280;60471;52.150;4.508;2023-05-02T02:08:25;101950.66;;;12.14;67.36
72465;BME280;60471;52.150;4.508;2023-05-02T02:10:56;101958.25;;;12.46;65.89
72465;BME280;60471;52.150;4.508;2023-05-02T02:13:29;101959.81;;;12.29;66.17
72465;BME280;60471;52.150;4.508;2023-05-02T02:16:02;101967.81;;;12.27;66.80
72465;BME280;60471;52.150;4.508;2023-05-02T02:18:35;101968.22;;;12.40;66.03
72465;BME280;60471;52.150;4.508;2023-05-02T02:21:08;101968.63;;;12.53;65.32
72465;BME280;60471;52.150;4.508;2023-05-02T02:23:38;101974.38;;;12.64;63.96
72465;BME280;60471;52.150;4.508;2023-05-02T02:26:08;101977.22;;;12.59;64.10
72465;BME280;60471;52.150;4.508;2023-05-02T02:28:35;101975.75;;;12.51;63.72
72465;BME280;60471;52.150;4.508;2023-05-02T02:31:01;101982.31;;;12.64;63.65
72465;BME280;60471;52.150;4.508;2023-05-02T02:33:29;101977.75;;;12.67;62.96
72465;BME280;60471;52.150;4.508;2023-05-02T02:36:07;101978.75;;;12.65;62.42
72465;BME280;60471;52.150;4.508;2023-05-02T02:38:41;101976.38;;;12.57;62.72
72465;BME280;60471;52.150;4.508;2023-05-02T02:41:26;101977.03;;;12.64;62.73
72465;BME280;60471;52.150;4.508;2023-05-02T02:47:11;101992.59;;;12.25;64.13
72465;BME280;60471;52.150;4.508;2023-05-02T02:52:52;101990.00;;;12.23;65.16
72465;BME280;60471;52.150;4.508;2023-05-02T03:01:05;101998.56;;;12.06;65.20
72465;BME280;60471;52.150;4.508;2023-05-02T03:03:41;102003.00;;;12.06;65.61
72465;BME280;60471;52.150;4.508;2023-05-02T03:06:09;102000.25;;;11.84;66.50
72465;BME280;60471;52.150;4.508;2023-05-02T03:08:42;102013.53;;;11.81;66.96
72465;BME280;60471;52.150;4.508;2023-05-02T03:11:09;102015.31;;;12.07;66.01
72465;BME280;60471;52.150;4.508;2023-05-02T03:13:36;102013.72;;;12.01;65.25
72465;BME280;60471;52.150;4.508;2023-05-02T03:16:38;102018.69;;;11.85;65.38
72465;BME280;60471;52.150;4.508;2023-05-02T03:19:06;102023.75;;;11.92;65.63
72465;BME280;60471;52.150;4.508;2023-05-02T03:21:33;102025.28;;;11.72;66.08
72465;BME280;60471;52.150;4.508;2023-05-02T03:24:02;102027.56;;;11.83;65.27
72465;BME280;60471;52.150;4.508;2023-05-02T03:26:29;102033.97;;;11.76;65.37
72465;BME280;60471;52.150;4.508;2023-05-02T03:28:55;102030.22;;;11.83;63.75
72465;BME280;60471;52.150;4.508;2023-05-02T03:31:22;102035.97;;;11.96;64.01
72465;BME280;60471;52.150;4.508;2023-05-02T03:33:48;102044.06;;;11.91;62.94
72465;BME280;60471;52.150;4.508;2023-05-02T03:36:15;102040.53;;;11.90;62.63
72465;BME280;60471;52.150;4.508;2023-05-02T03:38:42;102044.59;;;12.01;62.32
72465;BME280;60471;52.150;4.508;2023-05-02T03:41:08;102041.81;;;12.05;61.77
72465;BME280;60471;52.150;4.508;2023-05-02T03:43:34;102045.09;;;12.12;62.03
72465;BME280;60471;52.150;4.508;2023-05-02T03:46:07;102048.59;;;12.12;61.63
72465;BME280;60471;52.150;4.508;2023-05-02T03:48:36;102047.66;;;11.88;62.42
72465;BME280;60471;52.150;4.508;2023-05-02T03:51:04;102057.53;;;12.10;61.78
72465;BME280;60471;52.150;4.508;2023-05-02T03:53:32;102052.66;;;11.98;61.74
72465;BME280;60471;52.150;4.508;2023-05-02T03:55:58;102066.84;;;11.95;61.96
72465;BME280;60471;52.150;4.508;2023-05-02T03:58:25;102063.00;;;11.51;63.00
72465;BME280;60471;52.150;4.508;2023-05-02T04:00:52;102072.44;;;11.58;63.10
72465;BME280;60471;52.150;4.508;2023-05-02T04:03:19;102069.25;;;11.75;62.43
72465;BME280;60471;52.150;4.508;2023-05-02T04:05:46;102071.59;;;11.57;62.60
72465;BME280;60471;52.150;4.508;2023-05-02T04:08:12;102082.44;;;11.48;63.34
72465;BME280;60471;52.150;4.508;2023-05-02T04:10:38;102077.78;;;11.56;62.64
72465;BME280;60471;52.150;4.508;2023-05-02T04:13:04;102078.53;;;11.61;62.37
72465;BME280;60471;52.150;4.508;2023-05-02T04:15:31;102079.41;;;11.60;62.45
72465;BME280;60471;52.150;4.508;2023-05-02T04:17:57;102084.91;;;11.54;62.86
72465;BME280;60471;52.150;4.508;2023-05-02T04:20:24;102084.22;;;11.48;63.27
72465;BME280;60471;52.150;4.508;2023-05-02T04:22:50;102088.88;;;11.68;62.56
72465;BME280;60471;52.150;4.508;2023-05-02T04:25:16;102084.63;;;11.64;62.60
72465;BME280;60471;52.150;4.508;2023-05-02T04:27:43;102086.00;;;11.75;62.60
72465;BME280;60471;52.150;4.508;2023-05-02T04:30:09;102092.19;;;11.74;63.06
72465;BME280;60471;52.150;4.508;2023-05-02T04:32:36;102095.34;;;11.87;62.62
72465;BME280;60471;52.150;4.508;2023-05-02T04:35:03;102102.91;;;11.70;62.19
72465;BME280;60471;52.150;4.508;2023-05-02T04:37:30;102113.06;;;11.55;63.14
72465;BME280;60471;52.150;4.508;2023-05-02T04:39:57;102112.31;;;11.80;62.78
72465;BME280;60471;52.150;4.508;2023-05-02T04:42:23;102125.22;;;11.61;62.27
72465;BME280;60471;52.150;4.508;2023-05-02T04:44:49;102123.50;;;11.88;61.95
72465;BME280;60471;52.150;4.508;2023-05-02T04:47:16;102129.16;;;12.04;60.71
72465;BME280;60471;52.150;4.508;2023-05-02T04:49:42;102128.34;;;12.02;61.15
72465;BME280;60471;52.150;4.508;2023-05-02T04:52:09;102131.72;;;11.79;61.24
72465;BME280;60471;52.150;4.508;2023-05-02T04:54:35;102138.75;;;11.80;61.26
72465;BME280;60471;52.150;4.508;2023-05-02T04:57:01;102132.84;;;11.70;62.28
72465;BME280;60471;52.150;4.508;2023-05-02T04:59:28;102140.19;;;11.62;62.10
72465;BME280;60471;52.150;4.508;2023-05-02T05:01:55;102138.00;;;11.47;62.34
72465;BME280;60471;52.150;4.508;2023-05-02T05:04:22;102140.09;;;11.36;62.38
72465;BME280;60471;52.150;4.508;2023-05-02T05:06:49;102143.69;;;11.63;61.03
72465;BME280;60471;52.150;4.508;2023-05-02T05:09:15;102147.72;;;11.46;62.09
72465;BME280;60471;52.150;4.508;2023-05-02T05:11:42;102155.41;;;11.54;61.66
72465;BME280;60471;52.150;4.508;2023-05-02T05:14:08;102151.28;;;11.45;61.96
72465;BME280;60471;52.150;4.508;2023-05-02T05:16:34;102161.34;;;11.62;61.11
72465;BME280;60471;52.150;4.508;2023-05-02T05:19:02;102153.03;;;11.74;60.57
72465;BME280;60471;52.150;4.508;2023-05-02T05:21:29;102162.38;;;11.86;60.36
72465;BME280;60471;52.150;4.508;2023-05-02T05:23:55;102164.03;;;11.88;60.09
72465;BME280;60471;52.150;4.508;2023-05-02T05:26:22;102167.19;;;11.72;60.11
72465;BME280;60471;52.150;4.508;2023-05-02T05:28:49;102178.38;;;11.81;59.83
72465;BME280;60471;52.150;4.508;2023-05-02T05:31:16;102173.50;;;11.68;59.96
72465;BME280;60471;52.150;4.508;2023-05-02T05:33:42;102178.28;;;11.84;59.73
72465;BME280;60471;52.150;4.508;2023-05-02T05:36:10;102180.16;;;12.09;59.57
72465;BME280;60471;52.150;4.508;2023-05-02T05:38:40;102180.72;;;12.18;59.22
72465;BME280;60471;52.150;4.508;2023-05-02T05:41:06;102185.16;;;11.90;58.92
72465;BME280;60471;52.150;4.508;2023-05-02T05:43:33;102193.91;;;11.92;58.72
72465;BME280;60471;52.150;4.508;2023-05-02T05:45:59;102199.31;;;12.15;57.99
72465;BME280;60471;52.150;4.508;2023-05-02T05:48:26;102208.44;;;12.07;57.44
72465;BME280;60471;52.150;4.508;2023-05-02T05:50:52;102213.44;;;12.16;58.23
72465;BME280;60471;52.150;4.508;2023-05-02T05:53:18;102208.44;;;12.33;57.35
72465;BME280;60471;52.150;4.508;2023-05-02T05:55:45;102222.25;;;12.15;57.82
72465;BME280;60471;52.150;4.508;2023-05-02T05:58:11;102222.53;;;12.07;58.07
72465;BME280;60471;52.150;4.508;2023-05-02T06:00:38;102230.06;;;11.92;59.26
72465;BME280;60471;52.150;4.508;2023-05-02T06:03:05;102238.34;;;12.09;57.52
72465;BME280;60471;52.150;4.508;2023-05-02T06:05:34;102246.38;;;11.76;58.58
72465;BME280;60471;52.150;4.508;2023-05-02T06:08:00;102246.44;;;11.75;58.20
72465;BME280;60471;52.150;4.508;2023-05-02T06:10:27;102252.53;;;11.77;57.75
72465;BME280;60471;52.150;4.508;2023-05-02T06:12:53;102255.81;;;11.86;57.33
72465;BME280;60471;52.150;4.508;2023-05-02T06:15:19;102258.88;;;12.01;56.94
72465;BME280;60471;52.150;4.508;2023-05-02T06:17:45;102256.59;;;12.18;55.65
72465;BME280;60471;52.150;4.508;2023-05-02T06:20:11;102254.41;;;12.31;55.41
72465;BME280;60471;52.150;4.508;2023-05-02T06:22:38;102258.31;;;12.19;55.51
72465;BME280;60471;52.150;4.508;2023-05-02T06:25:05;102260.44;;;12.34;54.61
72465;BME280;60471;52.150;4.508;2023-05-02T06:27:32;102261.25;;;12.36;54.14
72465;BME280;60471;52.150;4.508;2023-05-02T06:29:58;102261.13;;;12.41;53.61
72465;BME280;60471;52.150;4.508;2023-05-02T06:32:24;102275.19;;;12.43;54.11
72465;BME280;60471;52.150;4.508;2023-05-02T06:34:51;102272.81;;;12.62;54.17
72465;BME280;60471;52.150;4.508;2023-05-02T06:37:17;102276.00;;;12.71;52.91
72465;BME280;60471;52.150;4.508;2023-05-02T06:39:43;102290.50;;;12.86;52.88
72465;BME280;60471;52.150;4.508;2023-05-02T06:42:09;102292.47;;;12.80;53.94
72465;BME280;60471;52.150;4.508;2023-05-02T06:44:35;102293.22;;;12.85;54.19
72465;BME280;60471;52.150;4.508;2023-05-02T06:47:03;102294.94;;;13.11;53.19
72465;BME280;60471;52.150;4.508;2023-05-02T06:49:31;102294.50;;;12.98;53.10
72465;BME280;60471;52.150;4.508;2023-05-02T06:51:57;102302.91;;;12.59;54.03
72465;BME280;60471;52.150;4.508;2023-05-02T06:54:23;102312.41;;;12.38;55.15
72465;BME280;60471;52.150;4.508;2023-05-02T06:56:50;102316.50;;;12.47;55.58
72465;BME280;60471;52.150;4.508;2023-05-02T06:59:16;102314.16;;;12.10;54.81
72465;BME280;60471;52.150;4.508;2023-05-02T07:01:43;102325.16;;;11.96;55.04
72465;BME280;60471;52.150;4.508;2023-05-02T07:04:09;102325.34;;;12.19;55.07
72465;BME280;60471;52.150;4.508;2023-05-02T07:06:35;102331.84;;;12.37;54.76
72465;BME280;60471;52.150;4.508;2023-05-02T07:09:02;102321.97;;;12.42;54.17
72465;BME280;60471;52.150;4.508;2023-05-02T07:11:28;102324.53;;;12.72;54.17
72465;BME280;60471;52.150;4.508;2023-05-02T07:13:54;102323.69;;;12.71;54.13
72465;BME280;60471;52.150;4.508;2023-05-02T07:16:20;102326.22;;;12.74;53.38
72465;BME280;60471;52.150;4.508;2023-05-02T07:18:46;102327.91;;;13.02;52.17
72465;BME280;60471;52.150;4.508;2023-05-02T07:21:13;102324.69;;;13.20;51.87
72465;BME280;60471;52.150;4.508;2023-05-02T07:23:39;102318.16;;;12.77;51.31
72465;BME280;60471;52.150;4.508;2023-05-02T07:26:05;102330.50;;;13.05;50.46
72465;BME280;60471;52.150;4.508;2023-05-02T07:28:32;102330.47;;;13.31;50.45
72465;BME280;60471;52.150;4.508;2023-05-02T07:30:58;102338.38;;;13.06;50.47
72465;BME280;60471;52.150;4.508;2023-05-02T07:33:24;102341.94;;;13.32;49.60
72465;BME280;60471;52.150;4.508;2023-05-02T07:35:51;102335.44;;;13.41;49.23
72465;BME280;60471;52.150;4.508;2023-05-02T07:38:17;102344.28;;;13.89;48.36
72465;BME280;60471;52.150;4.508;2023-05-02T07:40:43;102346.84;;;14.14;46.84
72465;BME280;60471;52.150;4.508;2023-05-02T07:43:12;102355.38;;;13.99;44.66
72465;BME280;60471;52.150;4.508;2023-05-02T07:45:39;102354.41;;;14.02;43.16
72465;BME280;60471;52.150;4.508;2023-05-02T07:48:05;102351.69;;;14.03;42.84
72465;BME280;60471;52.150;4.508;2023-05-02T07:50:31;102353.81;;;13.45;44.39
72465;BME280;60471;52.150;4.508;2023-05-02T07:52:57;102355.16;;;13.82;43.20
72465;BME280;60471;52.150;4.508;2023-05-02T07:55:24;102354.75;;;13.19;43.66
72465;BME280;60471;52.150;4.508;2023-05-02T07:57:53;102363.09;;;13.07;44.57
72465;BME280;60471;52.150;4.508;2023-05-02T08:00:19;102368.44;;;13.05;43.62
72465;BME280;60471;52.150;4.508;2023-05-02T08:02:46;102371.22;;;13.29;43.65
72465;BME280;60471;52.150;4.508;2023-05-02T08:05:12;102373.88;;;13.01;43.87
72465;BME280;60471;52.150;4.508;2023-05-02T08:07:38;102374.63;;;13.06;42.96
72465;BME280;60471;52.150;4.508;2023-05-02T08:10:05;102372.53;;;13.16;42.89
72465;BME280;60471;52.150;4.508;2023-05-02T08:12:37;102375.03;;;13.20;43.13
72465;BME280;60471;52.150;4.508;2023-05-02T08:15:08;102378.78;;;13.13;42.65
72465;BME280;60471;52.150;4.508;2023-05-02T08:17:36;102381.66;;;13.33;43.17
72465;BME280;60471;52.150;4.508;2023-05-02T08:20:03;102377.88;;;13.41;43.00
72465;BME280;60471;52.150;4.508;2023-05-02T08:22:29;102381.91;;;13.76;42.09
72465;BME280;60471;52.150;4.508;2023-05-02T08:24:56;102377.53;;;13.75;43.50
72465;BME280;60471;52.150;4.508;2023-05-02T08:27:22;102381.75;;;14.04;43.07
72465;BME280;60471;52.150;4.508;2023-05-02T08:29:49;102389.94;;;14.21;40.93
72465;BME280;60471;52.150;4.508;2023-05-02T08:32:15;102387.25;;;14.23;39.77
72465;BME280;60471;52.150;4.508;2023-05-02T08:34:41;102390.22;;;14.37;39.56
72465;BME280;60471;52.150;4.508;2023-05-02T08:37:09;102385.59;;;14.42;39.92
72465;BME280;60471;52.150;4.508;2023-05-02T08:39:36;102392.75;;;14.40;40.85
72465;BME280;60471;52.150;4.508;2023-05-02T08:42:06;102403.22;;;14.21;41.93
72465;BME280;60471;52.150;4.508;2023-05-02T08:44:33;102408.75;;;14.62;40.61
72465;BME280;60471;52.150;4.508;2023-05-02T08:46:59;102402.47;;;14.17;41.62
72465;BME280;60471;52.150;4.508;2023-05-02T08:49:28;102404.31;;;13.92;42.85
72465;BME280;60471;52.150;4.508;2023-05-02T08:51:58;102403.59;;;14.12;42.59
72465;BME280;60471;52.150;4.508;2023-05-02T08:54:25;102398.06;;;14.40;41.49
72465;BME280;60471;52.150;4.508;2023-05-02T08:56:55;102404.50;;;14.58;40.54
72465;BME280;60471;52.150;4.508;2023-05-02T08:59:21;102410.72;;;14.33;40.83
72465;BME280;60471;52.150;4.508;2023-05-02T09:01:54;102405.47;;;13.85;40.54
72465;BME280;60471;52.150;4.508;2023-05-02T09:04:30;102403.59;;;13.39;42.45
72465;BME280;60471;52.150;4.508;2023-05-02T09:07:00;102402.34;;;14.20;40.52
72465;BME280;60471;52.150;4.508;2023-05-02T09:09:27;102409.78;;;14.11;40.87
72465;BME280;60471;52.150;4.508;2023-05-02T09:11:53;102414.59;;;14.01;40.59
72465;BME280;60471;52.150;4.508;2023-05-02T09:14:22;102415.84;;;14.61;39.56
72465;BME280;60471;52.150;4.508;2023-05-02T09:16:49;102423.44;;;14.48;41.02
72465;BME280;60471;52.150;4.508;2023-05-02T09:19:25;102426.53;;;14.60;40.42
72465;BME280;60471;52.150;4.508;2023-05-02T09:21:51;102427.53;;;15.23;39.33
72465;BME280;60471;52.150;4.508;2023-05-02T09:24:26;102421.13;;;15.27;38.26
72465;BME280;60471;52.150;4.508;2023-05-02T09:27:03;102423.16;;;15.00;39.76
72465;BME280;60471;52.150;4.508;2023-05-02T09:29:32;102418.94;;;14.72;39.96
72465;BME280;60471;52.150;4.508;2023-05-02T09:32:06;102421.66;;;15.15;39.77
72465;BME280;60471;52.150;4.508;2023-05-02T09:34:33;102427.03;;;15.76;38.55
72465;BME280;60471;52.150;4.508;2023-05-02T09:36:59;102433.44;;;15.29;38.90
72465;BME280;60471;52.150;4.508;2023-05-02T09:39:27;102433.88;;;15.19;39.00
72465;BME280;60471;52.150;4.508;2023-05-02T09:41:54;102435.97;;;15.32;38.97
72465;BME280;60471;52.150;4.508;2023-05-02T09:44:24;102440.91;;;15.42;38.30
72465;BME280;60471;52.150;4.508;2023-05-02T09:46:54;102444.44;;;15.62;37.75
72465;BME280;60471;52.150;4.508;2023-05-02T09:49:43;102447.63;;;15.08;38.88
72465;BME280;60471;52.150;4.508;2023-05-02T09:52:12;102444.81;;;15.33;37.99
72465;BME280;60471;52.150;4.508;2023-05-02T09:54:40;102461.25;;;15.00;39.46
72465;BME280;60471;52.150;4.508;2023-05-02T09:57:07;102452.19;;;15.26;39.52
72465;BME280;60471;52.150;4.508;2023-05-02T09:59:35;102457.28;;;14.89;41.01
72465;BME280;60471;52.150;4.508;2023-05-02T10:02:02;102451.59;;;15.40;40.61
72465;BME280;60471;52.150;4.508;2023-05-02T10:04:31;102459.38;;;16.06;39.41
72465;BME280;60471;52.150;4.508;2023-05-02T10:06:59;102452.78;;;16.72;37.55
72465;BME280;60471;52.150;4.508;2023-05-02T10:09:28;102453.56;;;16.93;36.86
72465;BME280;60471;52.150;4.508;2023-05-02T10:12:00;102449.19;;;17.09;37.40
72465;BME280;60471;52.150;4.508;2023-05-02T10:14:39;102446.78;;;17.57;36.10
72465;BME280;60471;52.150;4.508;2023-05-02T10:17:19;102442.94;;;17.80;35.86
72465;BME280;60471;52.150;4.508;2023-05-02T10:19:59;102453.81;;;15.91;39.67
72465;BME280;60471;52.150;4.508;2023-05-02T10:22:29;102471.69;;;16.47;38.59
72465;BME280;60471;52.150;4.508;2023-05-02T10:24:57;102463.19;;;17.49;36.92
72465;BME280;60471;52.150;4.508;2023-05-02T10:27:25;102468.66;;;18.64;34.89
72465;BME280;60471;52.150;4.508;2023-05-02T10:29:52;102466.28;;;19.67;32.15
72465;BME280;60471;52.150;4.508;2023-05-02T10:32:20;102464.06;;;21.41;28.24
72465;BME280;60471;52.150;4.508;2023-05-02T10:34:49;102467.28;;;20.37;29.35
72465;BME280;60471;52.150;4.508;2023-05-02T10:37:17;102466.91;;;19.86;31.50
72465;BME280;60471;52.150;4.508;2023-05-02T10:39:44;102467.34;;;21.72;28.99
72465;BME280;60471;52.150;4.508;2023-05-02T10:42:12;102465.22;;;24.07;25.65
72465;BME280;60471;52.150;4.508;2023-05-02T10:44:40;102460.19;;;24.69;24.98
72465;BME280;60471;52.150;4.508;2023-05-02T10:47:23;102463.41;;;24.41;25.08
72465;BME280;60471;52.150;4.508;2023-05-02T10:49:56;102467.84;;;23.73;26.54
72465;BME280;60471;52.150;4.508;2023-05-02T10:52:37;102457.84;;;23.51;25.86
72465;BME280;60471;52.150;4.508;2023-05-02T10:55:12;102468.03;;;23.94;25.87
72465;BME280;60471;52.150;4.508;2023-05-02T11:00:25;102465.50;;;26.49;21.79
72465;BME280;60471;52.150;4.508;2023-05-02T11:02:53;102461.97;;;25.02;22.82
72465;BME280;60471;52.150;4.508;2023-05-02T11:05:21;102471.56;;;21.36;27.57
72465;BME280;60471;52.150;4.508;2023-05-02T11:07:49;102476.44;;;23.43;24.62
72465;BME280;60471;52.150;4.508;2023-05-02T11:12:55;102473.91;;;22.81;25.47
72465;BME280;60471;52.150;4.508;2023-05-02T11:20:29;102479.44;;;24.20;24.72
72465;BME280;60471;52.150;4.508;2023-05-02T11:23:19;102473.66;;;25.97;21.81
72465;BME280;60471;52.150;4.508;2023-05-02T11:25:57;102482.75;;;24.68;23.25
72465;BME280;60471;52.150;4.508;2023-05-02T11:31:04;102479.88;;;25.88;21.30
72465;BME280;60471;52.150;4.508;2023-05-02T11:34:00;102470.41;;;25.83;22.09
72465;BME280;60471;52.150;4.508;2023-05-02T11:36:30;102488.75;;;23.93;24.59
72465;BME280;60471;52.150;4.508;2023-05-02T11:39:01;102487.53;;;24.76;22.03
72465;BME280;60471;52.150;4.508;2023-05-02T11:41:42;102486.34;;;25.44;21.12
72465;BME280;60471;52.150;4.508;2023-05-02T11:44:09;102490.31;;;24.97;23.03
72465;BME280;60471;52.150;4.508;2023-05-02T11:46:36;102498.00;;;24.58;22.99
72465;BME280;60471;52.150;4.508;2023-05-02T11:49:03;102501.66;;;23.42;24.68
72465;BME280;60471;52.150;4.508;2023-05-02T11:51:30;102501.72;;;25.76;20.87
72465;BME280;60471;52.150;4.508;2023-05-02T11:53:56;102510.13;;;26.54;20.31
72465;BME280;60471;52.150;4.508;2023-05-02T11:56:23;102515.94;;;25.13;22.33
72465;BME280;60471;52.150;4.508;2023-05-02T11:58:58;102514.13;;;26.29;19.89
72465;BME280;60471;52.150;4.508;2023-05-02T12:01:25;102515.22;;;26.48;20.27
72465;BME280;60471;52.150;4.508;2023-05-02T12:04:06;102512.66;;;26.46;20.78
72465;BME280;60471;52.150;4.508;2023-05-02T12:06:33;102520.50;;;25.98;21.36
72465;BME280;60471;52.150;4.508;2023-05-02T12:09:07;102517.31;;;26.14;19.85
72465;BME280;60471;52.150;4.508;2023-05-02T12:11:35;102524.69;;;26.12;19.68
72465;BME280;60471;52.150;4.508;2023-05-02T12:14:03;102527.88;;;26.47;20.13
72465;BME280;60471;52.150;4.508;2023-05-02T12:16:33;102524.28;;;25.54;21.59
72465;BME280;60471;52.150;4.508;2023-05-02T12:19:00;102519.75;;;26.17;21.12
72465;BME280;60471;52.150;4.508;2023-05-02T12:21:29;102527.59;;;27.69;18.95
72465;BME280;60471;52.150;4.508;2023-05-02T12:23:58;102525.06;;;26.99;20.27
72465;BME280;60471;52.150;4.508;2023-05-02T12:26:26;102515.00;;;27.59;19.26
72465;BME280;60471;52.150;4.508;2023-05-02T12:28:58;102527.56;;;27.60;19.33
72465;BME280;60471;52.150;4.508;2023-05-02T12:31:26;102538.25;;;25.91;21.18
72465;BME280;60471;52.150;4.508;2023-05-02T12:33:55;102536.56;;;26.20;20.60
72465;BME280;60471;52.150;4.508;2023-05-02T12:36:25;102538.97;;;25.61;22.29
72465;BME280;60471;52.150;4.508;2023-05-02T12:38:57;102537.94;;;26.05;21.13
72465;BME280;60471;52.150;4.508;2023-05-02T12:41:34;102540.56;;;26.47;20.58
72465;BME280;60471;52.150;4.508;2023-05-02T12:44:03;102543.75;;;26.31;18.95
72465;BME280;60471;52.150;4.508;2023-05-02T12:46:30;102537.53;;;27.88;18.60
72465;BME280;60471;52.150;4.508;2023-05-02T12:49:07;102539.16;;;28.38;17.95
72465;BME280;60471;52.150;4.508;2023-05-02T12:51:34;102548.41;;;27.88;18.68
72465;BME280;60471;52.150;4.508;2023-05-02T12:54:02;102547.03;;;28.68;17.62
72465;BME280;60471;52.150;4.508;2023-05-02T12:56:29;102547.78;;;28.23;17.63
72465;BME280;60471;52.150;4.508;2023-05-02T12:59:03;102546.47;;;27.02;20.05
72465;BME280;60471;52.150;4.508;2023-05-02T13:01:32;102558.56;;;27.48;18.85
72465;BME280;60471;52.150;4.508;2023-05-02T13:03:59;102553.06;;;28.35;17.68
72465;BME280;60471;52.150;4.508;2023-05-02T13:06:25;102556.00;;;28.78;17.79
72465;BME280;60471;52.150;4.508;2023-05-02T13:08:52;102554.22;;;28.13;18.01
72465;BME280;60471;52.150;4.508;2023-05-02T13:11:18;102566.50;;;28.07;17.85
72465;BME280;60471;52.150;4.508;2023-05-02T13:13:45;102570.44;;;28.89;17.41
72465;BME280;60471;52.150;4.508;2023-05-02T13:16:11;102569.25;;;28.91;17.42
72465;BME280;60471;52.150;4.508;2023-05-02T13:18:37;102563.03;;;29.26;17.14
72465;BME280;60471;52.150;4.508;2023-05-02T13:21:04;102562.97;;;28.91;17.15
72465;BME280;60471;52.150;4.508;2023-05-02T13:23:30;102555.97;;;28.04;19.08
72465;BME280;60471;52.150;4.508;2023-05-02T13:25:56;102558.34;;;28.17;18.62
72465;BME280;60471;52.150;4.508;2023-05-02T13:28:23;102564.25;;;26.85;19.84
72465;BME280;60471;52.150;4.508;2023-05-02T13:30:49;102558.53;;;27.86;17.96
72465;BME280;60471;52.150;4.508;2023-05-02T13:33:15;102561.22;;;28.06;17.77
72465;BME280;60471;52.150;4.508;2023-05-02T13:35:41;102574.50;;;27.41;19.29